createdAt,value
2022-09-28T00:01:23.567Z,35.30
2022-09-28T00:03:52.960Z,36.10
2022-09-28T00:06:22.712Z,34.70
2022-09-28T00:08:51.025Z,33.00
2022-09-28T00:11:20.939Z,36.05
2022-09-28T00:13:51.492Z,34.40
2022-09-28T00:16:21.034Z,32.20
2022-09-28T00:18:51.436Z,33.15
2022-09-28T00:21:22.331Z,32.55
2022-09-28T00:24:11.676Z,33.10
2022-09-28T00:26:41.261Z,31.88
2022-09-28T00:29:32.536Z,31.02
2022-09-28T00:32:05.582Z,31.15
2022-09-28T00:34:36.115Z,29.85
2022-09-28T00:37:05.126Z,29.38
2022-09-28T00:39:35.744Z,29.80
2022-09-28T00:42:03.925Z,28.67
2022-09-28T00:44:42.135Z,30.85
2022-09-28T00:47:17.792Z,29.25
2022-09-28T00:49:56.469Z,30.90
2022-09-28T00:52:32.856Z,30.25
2022-09-28T00:55:01.484Z,29.65
2022-09-28T00:57:29.579Z,30.13
2022-09-28T00:59:57.694Z,29.77
2022-09-28T01:02:25.964Z,30.58
2022-09-28T01:04:53.957Z,31.85
2022-09-28T01:07:22.297Z,30.38
2022-09-28T01:09:50.444Z,30.10
2022-09-28T01:12:18.274Z,31.13
2022-09-28T01:14:46.405Z,31.17
2022-09-28T01:17:16.570Z,30.58
2022-09-28T01:20:20.085Z,30.02
2022-09-28T01:23:14.520Z,31.13
2022-09-28T01:25:55.369Z,32.70
2022-09-28T01:28:31.871Z,33.40
2022-09-28T01:31:13.373Z,32.10
2022-09-28T01:33:46.235Z,35.13
2022-09-28T01:36:23.294Z,32.83
2022-09-28T01:39:02.090Z,33.63
2022-09-28T01:41:30.330Z,34.42
2022-09-28T01:43:59.612Z,33.38
2022-09-28T01:46:37.447Z,33.15
2022-09-28T01:49:11.650Z,34.85
2022-09-28T01:51:41.556Z,32.92
2022-09-28T01:54:14.342Z,32.75
2022-09-28T01:56:57.892Z,33.85
2022-09-28T01:59:28.452Z,33.17
2022-09-28T02:02:00.933Z,33.72
2022-09-28T02:04:46.323Z,34.97
2022-09-28T02:07:20.893Z,32.33
2022-09-28T02:09:56.132Z,34.85
2022-09-28T02:12:45.401Z,33.05
2022-09-28T02:15:19.794Z,31.33
2022-09-28T02:17:48.831Z,30.92
2022-09-28T02:20:17.209Z,32.17
2022-09-28T02:22:50.155Z,31.10
2022-09-28T02:25:24.371Z,29.35
2022-09-28T02:28:05.823Z,29.55
2022-09-28T02:30:36.556Z,28.48
2022-09-28T02:33:21.923Z,40.55
2022-09-28T02:35:49.753Z,28.88
2022-09-28T02:38:19.357Z,28.23
2022-09-28T02:40:55.787Z,28.38
2022-09-28T02:46:14.323Z,27.48
2022-09-28T02:49:20.866Z,28.00
2022-09-28T02:52:08.334Z,30.10
2022-09-28T02:54:48.887Z,28.08
2022-09-28T02:57:51.990Z,28.40
2022-09-28T03:00:21.373Z,28.73
2022-09-28T03:03:12.296Z,28.90
2022-09-28T03:06:30.775Z,29.63
2022-09-28T03:09:06.304Z,29.05
2022-09-28T03:11:44.055Z,28.52
2022-09-28T03:14:11.857Z,29.52
2022-09-28T03:16:58.037Z,28.08
2022-09-28T03:19:36.911Z,28.33
2022-09-28T03:22:05.779Z,28.02
2022-09-28T03:24:34.787Z,28.23
2022-09-28T03:27:03.138Z,31.15
2022-09-28T03:29:33.228Z,29.23
2022-09-28T03:32:06.953Z,29.67
2022-09-28T03:34:35.813Z,29.67
2022-09-28T03:37:03.745Z,30.02
2022-09-28T03:39:32.039Z,29.80
2022-09-28T03:42:01.087Z,28.63
2022-09-28T03:44:30.260Z,29.92
2022-09-28T03:46:58.099Z,29.40
2022-09-28T03:49:26.470Z,27.33
2022-09-28T03:51:54.397Z,27.48
2022-09-28T03:54:24.255Z,27.20
2022-09-28T03:56:52.829Z,25.73
2022-09-28T03:59:20.843Z,26.92
2022-09-28T04:01:49.977Z,28.02
2022-09-28T04:04:18.985Z,26.35
2022-09-28T04:06:47.100Z,28.35
2022-09-28T04:09:15.270Z,28.42
2022-09-28T04:12:02.870Z,26.90
2022-09-28T04:14:32.093Z,27.10
2022-09-28T04:17:00.019Z,28.17
2022-09-28T04:19:31.821Z,27.77
2022-09-28T04:22:32.299Z,26.58
2022-09-28T04:25:00.181Z,26.65
2022-09-28T04:27:46.476Z,28.33
2022-09-28T04:30:14.651Z,27.48
2022-09-28T04:32:47.528Z,28.15
2022-09-28T04:35:15.894Z,30.17
2022-09-28T04:37:43.967Z,31.25
2022-09-28T04:40:16.036Z,27.27
2022-09-28T04:42:45.049Z,26.85
2022-09-28T04:45:26.214Z,25.85
2022-09-28T04:47:56.338Z,25.98
2022-09-28T04:50:31.803Z,27.27
2022-09-28T04:53:19.246Z,25.67
2022-09-28T04:56:01.530Z,26.83
2022-09-28T04:58:29.704Z,28.20
2022-09-28T05:01:00.020Z,28.08
2022-09-28T05:04:00.394Z,27.02
2022-09-28T05:06:38.115Z,25.67
2022-09-28T05:09:09.555Z,27.00
2022-09-28T05:11:37.567Z,26.08
2022-09-28T05:14:11.974Z,26.70
2022-09-28T05:16:44.094Z,25.95
2022-09-28T05:19:27.992Z,25.23
2022-09-28T05:22:04.779Z,26.15
2022-09-28T05:24:42.446Z,27.00
2022-09-28T05:27:10.781Z,25.05
2022-09-28T05:29:41.269Z,25.02
2022-09-28T05:32:29.038Z,25.50
2022-09-28T05:35:19.262Z,26.30
2022-09-28T05:37:48.631Z,26.20
2022-09-28T05:40:16.685Z,24.33
2022-09-28T05:42:44.751Z,25.08
2022-09-28T05:45:14.355Z,24.67
2022-09-28T05:47:46.301Z,23.73
2022-09-28T05:50:18.398Z,25.65
2022-09-28T05:52:47.519Z,25.02
2022-09-28T05:55:15.690Z,26.30
2022-09-28T05:57:44.942Z,25.83
2022-09-28T06:00:13.234Z,21.17
2022-09-28T06:02:43.564Z,20.38
2022-09-28T06:05:14.558Z,18.90
2022-09-28T06:07:42.918Z,19.63
2022-09-28T06:10:13.974Z,19.33
2022-09-28T06:12:57.692Z,19.33
2022-09-28T06:15:31.056Z,18.80
2022-09-28T06:18:11.870Z,19.55
2022-09-28T06:20:59.198Z,18.85
2022-09-28T06:23:36.371Z,18.58
2022-09-28T06:26:06.397Z,18.27
2022-09-28T06:28:34.637Z,17.17
2022-09-28T06:31:06.205Z,19.10
2022-09-28T06:33:43.277Z,17.60
2022-09-28T06:36:12.472Z,19.13
2022-09-28T06:39:13.289Z,18.48
2022-09-28T06:41:41.989Z,19.25
2022-09-28T06:44:16.141Z,15.23
2022-09-28T06:47:04.400Z,18.08
2022-09-28T06:49:59.561Z,16.30
2022-09-28T06:52:59.700Z,17.30
2022-09-28T06:56:07.431Z,15.65
2022-09-28T06:58:35.370Z,16.15
2022-09-28T07:01:04.199Z,16.38
2022-09-28T07:03:43.279Z,15.77
2022-09-28T07:06:48.513Z,12.77
2022-09-28T07:09:51.338Z,11.23
2022-09-28T07:12:53.571Z,11.00
2022-09-28T07:18:30.611Z,11.05
2022-09-28T07:20:59.657Z,9.52
2022-09-28T07:23:32.238Z,9.57
2022-09-28T07:26:13.289Z,9.55
2022-09-28T07:28:58.561Z,9.52
2022-09-28T07:31:39.739Z,10.43
2022-09-28T07:34:43.742Z,9.98
2022-09-28T07:37:38.745Z,9.90
2022-09-28T07:40:27.302Z,10.10
2022-09-28T07:42:56.440Z,10.10
2022-09-28T07:45:25.057Z,10.80
2022-09-28T07:47:58.081Z,12.23
2022-09-28T07:50:36.126Z,11.90
2022-09-28T07:53:26.308Z,12.32
2022-09-28T07:56:09.551Z,11.52
2022-09-28T07:58:52.394Z,11.80
2022-09-28T08:01:41.754Z,10.75
2022-09-28T08:04:13.892Z,10.75
2022-09-28T08:06:45.091Z,9.77
2022-09-28T08:09:14.594Z,10.70
2022-09-28T08:12:04.190Z,11.00
2022-09-28T08:14:43.471Z,10.25
2022-09-28T08:17:25.080Z,11.55
2022-09-28T08:20:16.586Z,11.25
2022-09-28T08:22:44.838Z,11.48
2022-09-28T08:25:17.384Z,9.75
2022-09-28T08:27:45.400Z,11.10
2022-09-28T08:30:13.854Z,9.80
2022-09-28T08:32:51.425Z,11.38
2022-09-28T08:35:49.071Z,11.55
2022-09-28T08:38:21.149Z,11.02
2022-09-28T08:41:57.052Z,11.27
2022-09-28T08:44:50.653Z,11.30
2022-09-28T08:47:57.139Z,11.13
2022-09-28T08:51:06.706Z,11.60
2022-09-28T09:30:06.615Z,14.68
2022-09-28T09:32:37.403Z,15.20
2022-09-28T09:35:31.674Z,15.80
2022-09-28T09:46:05.643Z,16.55
2022-09-28T09:48:55.250Z,17.77
2022-09-28T09:51:41.098Z,16.58
2022-09-28T09:54:25.986Z,17.35
2022-09-28T09:57:03.910Z,16.33
2022-09-28T10:00:12.423Z,16.80
2022-09-28T10:02:54.936Z,17.55
2022-09-28T10:05:37.428Z,17.08
2022-09-28T10:08:13.593Z,16.98
2022-09-28T10:10:55.215Z,16.92
2022-09-28T10:13:25.857Z,17.90
2022-09-28T10:15:58.079Z,15.15
2022-09-28T10:18:32.362Z,16.38
2022-09-28T10:21:20.668Z,15.27
2022-09-28T10:24:02.902Z,14.05
2022-09-28T10:26:39.439Z,14.88
2022-09-28T10:29:16.235Z,14.63
2022-09-28T10:31:49.041Z,13.85
2022-09-28T10:34:27.468Z,15.48
2022-09-28T10:37:01.135Z,16.42
2022-09-28T10:39:53.493Z,15.23
2022-09-28T10:42:30.238Z,14.48
2022-09-28T10:45:00.294Z,15.32
2022-09-28T10:47:38.315Z,16.50
2022-09-28T10:50:24.439Z,14.55
2022-09-28T10:53:20.365Z,15.38
2022-09-28T10:56:20.408Z,15.13
2022-09-28T10:58:52.273Z,14.48
2022-09-28T11:01:40.419Z,15.75
2022-09-28T11:04:19.364Z,15.60
2022-09-28T11:06:47.694Z,15.82
2022-09-28T11:09:30.866Z,15.07
2022-09-28T11:12:06.183Z,15.77
2022-09-28T11:14:42.036Z,17.45
2022-09-28T11:17:33.842Z,17.83
2022-09-28T11:20:27.067Z,18.23
2022-09-28T11:23:26.991Z,17.95
2022-09-28T11:26:05.836Z,17.27
2022-09-28T11:31:08.381Z,17.10
2022-09-28T11:34:01.204Z,16.13
2022-09-28T11:37:20.627Z,16.10
2022-09-28T11:40:11.000Z,16.77
2022-09-28T11:45:41.195Z,17.63
2022-09-28T11:48:22.170Z,16.50
2022-09-28T11:51:24.769Z,17.08
2022-09-28T11:54:00.228Z,15.45
2022-09-28T11:56:35.436Z,16.70
2022-09-28T11:59:27.680Z,17.02
2022-09-28T12:01:59.226Z,16.88
2022-09-28T12:05:02.246Z,16.67
2022-09-28T12:07:34.468Z,15.98
2022-09-28T12:10:04.627Z,15.95
2022-09-28T12:12:52.356Z,15.93
2022-09-28T12:15:26.167Z,16.00
2022-09-28T12:18:01.075Z,15.77
2022-09-28T12:20:30.193Z,14.77
2022-09-28T12:23:08.630Z,16.23
2022-09-28T12:25:59.410Z,16.77
2022-09-28T12:28:27.227Z,15.30
2022-09-28T12:30:55.239Z,16.30
2022-09-28T12:33:23.221Z,15.80
2022-09-28T12:36:12.445Z,16.80
2022-09-28T12:39:17.464Z,17.00
2022-09-28T12:41:58.658Z,16.83
2022-09-28T12:44:35.583Z,17.20
2022-09-28T12:47:33.575Z,16.33
2022-09-28T12:50:38.180Z,19.17
2022-09-28T12:53:20.141Z,18.42
2022-09-28T12:55:48.063Z,17.45
2022-09-28T12:58:36.958Z,17.58
2022-09-28T13:01:17.177Z,17.27
2022-09-28T13:04:04.316Z,17.23
2022-09-28T13:06:55.247Z,17.33
2022-09-28T13:09:24.680Z,16.50
2022-09-28T13:12:00.647Z,18.20
2022-09-28T13:14:50.328Z,17.67
2022-09-28T13:17:46.399Z,16.40
2022-09-28T13:20:26.227Z,17.63
2022-09-28T13:23:15.487Z,17.60
2022-09-28T13:25:57.117Z,17.95
2022-09-28T13:28:27.287Z,17.58
2022-09-28T13:30:56.254Z,17.52
2022-09-28T13:33:36.076Z,18.58
2022-09-28T13:36:27.479Z,18.55
2022-09-28T13:38:56.194Z,17.88
2022-09-28T13:41:29.105Z,18.80
2022-09-28T13:43:57.187Z,17.23
2022-09-28T13:46:39.140Z,18.73
2022-09-28T13:49:26.235Z,18.73
2022-09-28T13:51:58.310Z,19.13
2022-09-28T13:54:41.675Z,19.48
2022-09-28T13:57:16.451Z,18.88
2022-09-28T14:00:11.137Z,19.55
2022-09-28T14:05:44.405Z,18.70
2022-09-28T14:08:29.066Z,17.98
2022-09-28T14:11:24.823Z,20.33
2022-09-28T14:14:08.223Z,18.55
2022-09-28T14:16:37.295Z,17.63
2022-09-28T14:19:24.375Z,18.13
2022-09-28T14:22:09.920Z,19.05
2022-09-28T14:25:06.597Z,17.63
2022-09-28T14:27:40.291Z,18.42
2022-09-28T14:30:14.111Z,19.08
2022-09-28T14:32:45.537Z,18.58
2022-09-28T14:35:24.799Z,20.02
2022-09-28T14:38:12.357Z,18.67
2022-09-28T14:41:16.411Z,28.38
2022-09-28T14:43:44.422Z,19.83
2022-09-28T14:46:15.791Z,20.25
2022-09-28T14:48:57.298Z,21.38
2022-09-28T14:51:26.401Z,20.42
2022-09-28T14:53:55.539Z,20.13
2022-09-28T14:56:23.749Z,20.65
2022-09-28T14:58:53.861Z,19.52
2022-09-28T15:01:26.932Z,20.75
2022-09-28T15:03:56.534Z,19.98
2022-09-28T15:06:29.103Z,21.02
2022-09-28T15:08:58.501Z,22.67
2022-09-28T15:11:27.008Z,20.52
2022-09-28T15:14:06.283Z,19.88
2022-09-28T15:16:34.505Z,21.13
2022-09-28T15:19:06.126Z,20.95
2022-09-28T15:21:36.239Z,19.40
2022-09-28T15:24:32.003Z,20.55
2022-09-28T15:27:10.570Z,21.08
2022-09-28T15:29:38.478Z,19.17
2022-09-28T15:32:06.679Z,19.05
2022-09-28T15:34:51.697Z,20.52
2022-09-28T15:37:32.501Z,21.07
2022-09-28T15:40:01.985Z,21.00
2022-09-28T15:42:36.647Z,20.30
2022-09-28T15:45:30.894Z,18.67
2022-09-28T15:48:24.739Z,18.05
2022-09-28T15:50:59.810Z,17.30
2022-09-28T15:53:28.041Z,16.30
2022-09-28T15:56:00.250Z,15.55
2022-09-28T15:58:29.210Z,14.40
2022-09-28T16:01:25.807Z,12.40
2022-09-28T16:03:54.340Z,12.05
2022-09-28T16:06:23.231Z,12.00
2022-09-28T16:08:52.222Z,10.95
2022-09-28T16:11:26.418Z,11.02
2022-09-28T16:14:06.397Z,10.95
2022-09-28T16:16:36.047Z,10.88
2022-09-28T16:19:05.306Z,10.27
2022-09-28T16:21:40.208Z,10.35
2022-09-28T16:24:33.770Z,10.07
2022-09-28T16:27:03.646Z,49.72
2022-09-28T16:29:42.415Z,13.25
2022-09-28T16:32:25.685Z,12.20
2022-09-28T16:35:17.186Z,11.93
2022-09-28T16:37:45.413Z,10.20
2022-09-28T16:40:13.904Z,11.18
2022-09-28T16:42:48.703Z,11.15
2022-09-28T16:45:21.723Z,11.00
2022-09-28T16:47:54.745Z,11.02
2022-09-28T16:50:22.960Z,11.13
2022-09-28T16:53:17.247Z,16.52
2022-09-28T16:55:46.040Z,10.98
2022-09-28T16:58:13.910Z,10.80
2022-09-28T17:00:43.580Z,12.40
2022-09-28T17:03:18.431Z,10.35
2022-09-28T17:05:46.709Z,10.85
2022-09-28T17:08:18.212Z,10.82
2022-09-28T17:11:13.796Z,15.30
2022-09-28T17:13:43.630Z,10.48
2022-09-28T17:17:02.353Z,10.88
2022-09-28T17:19:24.984Z,10.63
2022-09-28T17:21:53.203Z,12.68
2022-09-28T17:24:21.405Z,14.70
2022-09-28T17:26:50.259Z,13.52
2022-09-28T17:29:18.703Z,10.73
2022-09-28T17:31:46.988Z,10.70
2022-09-28T17:34:16.514Z,12.07
2022-09-28T17:37:04.587Z,9.90
2022-09-28T17:39:33.045Z,11.20
2022-09-28T17:42:02.802Z,11.23
2022-09-28T17:44:30.645Z,13.93
2022-09-28T17:47:01.175Z,13.38
2022-09-28T17:49:29.542Z,13.10
2022-09-28T17:51:57.636Z,12.27
2022-09-28T17:54:25.965Z,11.30
2022-09-28T17:56:54.184Z,12.70
2022-09-28T17:59:26.907Z,11.43
2022-09-28T18:01:56.762Z,11.40
2022-09-28T18:04:50.121Z,12.35
2022-09-28T18:07:15.168Z,11.95
2022-09-28T18:09:43.008Z,12.73
2022-09-28T18:12:12.806Z,11.57
2022-09-28T18:14:41.668Z,12.02
2022-09-28T18:17:09.354Z,10.80
2022-09-28T18:19:38.162Z,10.93
2022-09-28T18:22:07.740Z,13.85
2022-09-28T18:24:38.367Z,13.00
2022-09-28T18:27:06.188Z,11.15
2022-09-28T18:29:36.316Z,12.02
2022-09-28T18:32:04.548Z,11.43
2022-09-28T18:34:36.074Z,11.45
2022-09-28T18:37:04.683Z,11.27
2022-09-28T18:39:53.099Z,11.63
2022-09-28T18:42:21.181Z,11.40
2022-09-28T18:44:49.116Z,13.02
2022-09-28T18:47:17.692Z,11.43
2022-09-28T18:49:46.851Z,11.23
2022-09-28T18:52:18.022Z,12.15
2022-09-28T18:54:47.221Z,11.75
2022-09-28T18:57:18.292Z,11.63
2022-09-28T18:59:46.611Z,12.48
2022-09-28T19:02:17.981Z,12.00
2022-09-28T19:04:45.925Z,12.25
2022-09-28T19:07:13.843Z,12.50
2022-09-28T19:09:44.344Z,12.70
2022-09-28T19:12:12.565Z,11.65
2022-09-28T19:14:41.467Z,11.38
2022-09-28T19:17:10.258Z,13.18
2022-09-28T19:19:38.456Z,12.93
2022-09-28T19:22:06.623Z,12.43
2022-09-28T19:24:34.820Z,13.25
2022-09-28T19:27:02.849Z,12.30
2022-09-28T19:29:30.727Z,13.23
2022-09-28T19:31:58.740Z,12.45
2022-09-28T19:34:30.171Z,12.55
2022-09-28T19:36:58.589Z,12.88
2022-09-28T19:39:26.458Z,12.82
2022-09-28T19:41:57.357Z,12.90
2022-09-28T19:44:28.507Z,12.02
2022-09-28T19:47:07.815Z,13.85
2022-09-28T19:49:37.431Z,12.68
2022-09-28T19:52:15.816Z,12.20
2022-09-28T19:54:57.150Z,13.50
2022-09-28T19:57:27.933Z,16.40
2022-09-28T20:00:02.480Z,13.77
2022-09-28T20:02:38.845Z,11.75
2022-09-28T20:05:10.148Z,12.48
2022-09-28T20:07:43.005Z,12.27
2022-09-28T20:10:12.488Z,12.43
2022-09-28T20:12:42.451Z,11.65
2022-09-28T20:15:10.973Z,11.27
2022-09-28T20:17:39.502Z,12.18
2022-09-28T20:20:14.699Z,12.40
2022-09-28T20:22:46.853Z,12.43
2022-09-28T20:25:16.068Z,12.52
2022-09-28T20:27:44.540Z,12.60
2022-09-28T20:30:16.528Z,11.65
2022-09-28T20:32:50.552Z,14.95
2022-09-28T20:35:32.248Z,16.02
2022-09-28T20:38:09.346Z,15.10
2022-09-28T20:40:41.194Z,13.13
2022-09-28T20:43:11.745Z,15.27
2022-09-28T20:45:43.149Z,16.88
2022-09-28T20:48:11.647Z,18.23
2022-09-28T20:50:47.450Z,19.88
2022-09-28T20:53:19.291Z,21.23
2022-09-28T20:55:49.298Z,21.08
2022-09-28T20:58:17.541Z,22.80
2022-09-28T21:01:26.482Z,26.38
2022-09-28T21:03:55.513Z,25.90
2022-09-28T21:06:25.067Z,23.58
2022-09-28T21:08:53.144Z,24.40
2022-09-28T21:11:23.416Z,26.23
2022-09-28T21:13:55.818Z,24.40
2022-09-28T21:16:23.843Z,28.15
2022-09-28T21:19:00.661Z,29.42
2022-09-28T21:21:29.301Z,28.27
2022-09-28T21:23:57.905Z,29.55
2022-09-28T21:26:28.820Z,27.83
2022-09-28T21:29:09.207Z,28.85
2022-09-28T21:31:42.356Z,26.27
2022-09-28T21:34:22.016Z,25.00
2022-09-28T21:36:53.387Z,25.73
2022-09-28T21:39:55.993Z,24.85
2022-09-28T21:42:24.120Z,24.73
2022-09-28T21:44:56.325Z,25.38
2022-09-28T21:47:28.559Z,26.40
2022-09-28T21:49:56.601Z,30.10
2022-09-28T21:52:24.721Z,28.35
2022-09-28T21:54:52.974Z,26.58
2022-09-28T21:57:22.299Z,29.15
2022-09-28T21:59:50.668Z,27.40
2022-09-28T22:02:21.750Z,27.73
2022-09-28T22:04:56.330Z,35.55
2022-09-28T22:07:24.515Z,34.72
2022-09-28T22:09:53.699Z,30.45
2022-09-28T22:13:02.926Z,29.23
2022-09-28T22:15:32.297Z,29.05
2022-09-28T22:18:00.231Z,28.60
2022-09-28T22:20:29.050Z,26.95
2022-09-28T22:23:04.443Z,29.63
2022-09-28T22:25:33.539Z,28.58
2022-09-28T22:28:01.815Z,27.65
2022-09-28T22:30:30.411Z,30.30
2022-09-28T22:33:02.550Z,37.17
2022-09-28T22:35:41.682Z,30.65
2022-09-28T22:38:41.719Z,28.52
2022-09-28T22:41:12.947Z,25.35
2022-09-28T22:43:41.726Z,24.58
2022-09-28T22:46:17.218Z,23.23
2022-09-28T22:48:52.483Z,23.63
2022-09-28T22:51:23.054Z,24.67
2022-09-28T22:53:58.380Z,22.30
2022-09-28T22:56:27.619Z,22.27
2022-09-28T22:58:57.525Z,23.15
2022-09-28T23:01:27.475Z,25.13
2022-09-28T23:03:56.732Z,26.27
2022-09-28T23:06:31.239Z,24.10
2022-09-28T23:09:00.237Z,26.00
2022-09-28T23:11:29.202Z,24.40
2022-09-28T23:13:59.158Z,21.52
2022-09-28T23:16:27.702Z,21.23
2022-09-28T23:18:56.950Z,19.67
2022-09-28T23:21:26.631Z,19.85
2022-09-28T23:23:59.722Z,18.17
2022-09-28T23:26:32.043Z,21.10
2022-09-28T23:29:00.210Z,18.25
2022-09-28T23:31:31.840Z,19.40
2022-09-28T23:34:05.172Z,19.67
2022-09-28T23:36:33.749Z,18.70
2022-09-28T23:39:02.655Z,17.50
2022-09-28T23:41:30.684Z,16.38
2022-09-28T23:44:01.700Z,15.32
2022-09-28T23:46:30.398Z,16.30
2022-09-28T23:48:59.592Z,16.23
2022-09-28T23:51:28.323Z,16.17
2022-09-28T23:53:57.675Z,16.45
2022-09-28T23:56:25.439Z,15.77
2022-09-28T23:58:54.509Z,16.52
